createdAt,value
2019-06-26T00:00:42.774Z,72.22
2019-06-26T00:03:18.052Z,72.45
2019-06-26T00:05:53.193Z,72.76
2019-06-26T00:08:28.230Z,72.71
2019-06-26T00:11:03.350Z,72.79
2019-06-26T00:13:38.442Z,72.97
2019-06-26T00:16:13.430Z,72.46
2019-06-26T00:18:48.547Z,72.92
2019-06-26T00:21:23.524Z,73.05
2019-06-26T00:23:58.609Z,72.89
2019-06-26T00:26:33.901Z,73.32
2019-06-26T00:29:08.875Z,73.73
2019-06-26T00:31:44.039Z,73.97
2019-06-26T00:34:19.007Z,73.62
2019-06-26T00:36:54.010Z,73.56
2019-06-26T00:39:29.078Z,73.67
2019-06-26T00:42:04.077Z,73.79
2019-06-26T00:44:39.068Z,74.25
2019-06-26T00:47:14.146Z,73.82
2019-06-26T00:49:49.287Z,73.69
2019-06-26T00:52:24.308Z,73.75
2019-06-26T00:54:59.263Z,74.12
2019-06-26T00:57:34.373Z,74.00
2019-06-26T01:00:13.140Z,73.80
2019-06-26T01:02:48.302Z,73.74
2019-06-26T01:05:24.219Z,73.11
2019-06-26T01:07:59.345Z,72.39
2019-06-26T01:10:34.420Z,71.68
2019-06-26T01:13:09.535Z,72.02
2019-06-26T01:15:44.988Z,71.63
2019-06-26T01:18:20.122Z,71.78
2019-06-26T01:20:55.211Z,71.92
2019-06-26T01:23:30.222Z,72.20
2019-06-26T01:26:05.242Z,71.89
2019-06-26T01:28:40.408Z,71.91
2019-06-26T01:31:15.408Z,72.06
2019-06-26T01:33:50.713Z,71.69
2019-06-26T01:36:25.723Z,71.61
2019-06-26T01:39:00.690Z,71.80
2019-06-26T01:41:37.333Z,72.29
2019-06-26T01:44:15.247Z,72.09
2019-06-26T01:46:48.995Z,72.42
2019-06-26T01:49:24.191Z,72.20
2019-06-26T01:51:59.297Z,71.62
2019-06-26T01:54:34.267Z,72.20
2019-06-26T01:57:09.279Z,71.51
2019-06-26T01:59:44.500Z,71.59
2019-06-26T02:02:19.565Z,71.55
2019-06-26T02:04:54.543Z,71.39
2019-06-26T02:07:31.841Z,71.29
2019-06-26T02:10:07.416Z,71.45
2019-06-26T02:12:44.103Z,71.62
2019-06-26T02:15:19.372Z,71.41
2019-06-26T02:17:54.477Z,71.38
2019-06-26T02:20:29.603Z,71.76
2019-06-26T02:23:05.388Z,71.79
2019-06-26T02:25:40.442Z,71.50
2019-06-26T02:28:16.679Z,72.27
2019-06-26T02:30:52.010Z,72.42
2019-06-26T02:33:27.090Z,71.95
2019-06-26T02:36:02.043Z,72.05
2019-06-26T02:38:37.225Z,72.07
2019-06-26T02:41:12.220Z,72.27
2019-06-26T02:43:53.382Z,72.86
2019-06-26T02:46:28.489Z,73.26
2019-06-26T02:49:03.557Z,72.71
2019-06-26T02:51:38.512Z,73.37
2019-06-26T02:54:13.722Z,73.49
2019-06-26T02:56:48.701Z,73.57
2019-06-26T02:59:23.824Z,73.82
2019-06-26T03:01:58.773Z,73.71
2019-06-26T03:04:33.802Z,73.93
2019-06-26T03:07:08.785Z,74.46
2019-06-26T03:09:43.761Z,74.35
2019-06-26T03:12:18.784Z,73.91
2019-06-26T03:15:08.436Z,73.89
2019-06-26T03:17:33.872Z,74.19
2019-06-26T03:20:10.424Z,74.31
2019-06-26T03:22:47.161Z,73.87
2019-06-26T03:25:22.135Z,74.33
2019-06-26T03:27:57.148Z,74.15
2019-06-26T03:30:32.171Z,73.89
2019-06-26T03:33:07.482Z,74.15
2019-06-26T03:35:42.435Z,73.74
2019-06-26T03:38:17.459Z,73.25
2019-06-26T03:40:52.476Z,73.44
2019-06-26T03:43:27.537Z,73.55
2019-06-26T03:46:02.549Z,73.26
2019-06-26T03:48:37.561Z,72.80
2019-06-26T03:51:14.000Z,73.11
2019-06-26T03:53:49.308Z,73.18
2019-06-26T03:56:24.289Z,72.91
2019-06-26T03:58:59.396Z,72.59
2019-06-26T04:01:34.478Z,72.88
2019-06-26T04:04:09.570Z,72.70
2019-06-26T04:06:44.570Z,72.28
2019-06-26T04:09:19.565Z,72.63
2019-06-26T04:11:54.756Z,72.96
2019-06-26T04:14:29.880Z,72.82
2019-06-26T04:17:10.242Z,72.57
2019-06-26T04:19:45.258Z,72.38
2019-06-26T04:22:20.270Z,71.98
2019-06-26T04:24:55.490Z,72.32
2019-06-26T04:27:30.568Z,72.32
2019-06-26T04:30:06.311Z,72.28
2019-06-26T04:32:41.400Z,71.94
2019-06-26T04:35:16.603Z,71.63
2019-06-26T04:37:51.730Z,71.77
2019-06-26T04:40:26.854Z,72.28
2019-06-26T04:43:01.955Z,72.00
2019-06-26T04:45:37.152Z,71.75
2019-06-26T04:48:12.206Z,72.02
2019-06-26T04:50:47.199Z,72.50
2019-06-26T04:53:23.976Z,72.29
2019-06-26T04:55:59.283Z,71.67
2019-06-26T04:58:34.424Z,72.36
2019-06-26T05:01:09.461Z,71.66
2019-06-26T05:03:44.557Z,71.33
2019-06-26T05:06:19.812Z,71.54
2019-06-26T05:08:54.880Z,71.01
2019-06-26T05:11:29.971Z,70.96
2019-06-26T05:14:05.898Z,70.20
2019-06-26T05:16:41.059Z,70.80
2019-06-26T05:19:17.200Z,70.65
2019-06-26T05:21:52.206Z,70.28
2019-06-26T05:24:27.245Z,70.88
2019-06-26T05:27:02.898Z,69.59
2019-06-26T05:29:38.078Z,70.55
2019-06-26T05:32:13.169Z,70.78
2019-06-26T05:34:48.164Z,70.32
2019-06-26T05:37:23.226Z,70.94
2019-06-26T05:39:58.592Z,70.43
2019-06-26T05:42:34.508Z,70.45
2019-06-26T05:45:14.121Z,70.83
2019-06-26T05:47:49.259Z,70.49
2019-06-26T05:50:24.741Z,70.89
2019-06-26T05:52:59.730Z,70.39
2019-06-26T05:55:36.357Z,71.09
2019-06-26T05:58:11.465Z,70.94
2019-06-26T06:00:48.063Z,70.79
2019-06-26T06:03:23.338Z,69.64
2019-06-26T06:05:58.475Z,69.92
2019-06-26T06:08:33.935Z,69.57
2019-06-26T06:11:09.124Z,69.25
2019-06-26T06:13:44.115Z,69.72
2019-06-26T06:16:20.356Z,70.09
2019-06-26T06:18:55.497Z,69.04
2019-06-26T06:21:31.270Z,69.94
2019-06-26T06:24:06.720Z,69.79
2019-06-26T06:26:41.773Z,69.28
2019-06-26T06:29:16.884Z,69.39
2019-06-26T06:31:51.980Z,69.79
2019-06-26T06:34:26.989Z,69.62
2019-06-26T06:37:02.111Z,68.24
2019-06-26T06:39:37.208Z,67.79
2019-06-26T06:42:12.299Z,67.95
2019-06-26T06:44:47.590Z,68.01
2019-06-26T06:47:23.411Z,67.17
2019-06-26T06:49:58.632Z,67.01
2019-06-26T06:52:33.910Z,67.84
2019-06-26T06:55:09.696Z,66.04
2019-06-26T06:57:45.484Z,66.55
2019-06-26T07:00:21.775Z,65.66
2019-06-26T07:02:57.092Z,63.98
2019-06-26T07:05:32.132Z,63.96
2019-06-26T07:08:07.101Z,65.22
2019-06-26T07:10:42.251Z,64.45
2019-06-26T07:13:17.756Z,63.23
2019-06-26T07:15:52.811Z,63.33
2019-06-26T07:18:27.913Z,62.86
2019-06-26T07:21:04.049Z,63.48
2019-06-26T07:23:39.162Z,62.31
2019-06-26T07:26:14.138Z,63.83
2019-06-26T07:28:49.184Z,62.71
2019-06-26T07:31:24.330Z,63.09
2019-06-26T07:33:59.501Z,63.13
2019-06-26T07:36:35.238Z,62.62
2019-06-26T07:39:10.267Z,63.78
2019-06-26T07:41:45.259Z,63.12
2019-06-26T07:44:20.294Z,62.22
2019-06-26T07:46:55.264Z,63.20
2019-06-26T07:49:30.425Z,63.29
2019-06-26T07:52:05.407Z,62.53
2019-06-26T07:54:40.494Z,61.28
2019-06-26T07:57:15.524Z,61.08
2019-06-26T07:59:50.626Z,60.18
2019-06-26T08:02:25.692Z,59.65
2019-06-26T08:05:02.859Z,60.83
2019-06-26T08:07:37.833Z,60.11
2019-06-26T08:10:16.400Z,60.98
2019-06-26T08:12:51.542Z,58.77
2019-06-26T08:15:26.746Z,59.35
2019-06-26T08:18:01.784Z,59.82
2019-06-26T08:20:51.627Z,61.46
2019-06-26T08:23:13.523Z,60.51
2019-06-26T08:25:48.644Z,58.07
2019-06-26T08:28:23.933Z,59.40
2019-06-26T08:30:59.033Z,57.70
2019-06-26T08:33:34.249Z,57.90
2019-06-26T08:36:09.755Z,57.21
2019-06-26T08:38:44.732Z,55.67
2019-06-26T08:41:19.846Z,57.22
2019-06-26T08:43:54.815Z,57.03
2019-06-26T08:46:29.794Z,58.38
2019-06-26T08:49:04.792Z,58.18
2019-06-26T08:51:39.930Z,57.49
2019-06-26T08:54:14.976Z,56.38
2019-06-26T08:56:49.966Z,55.31
2019-06-26T08:59:24.931Z,55.76
2019-06-26T09:02:00.127Z,55.71
2019-06-26T09:04:35.408Z,56.84
2019-06-26T09:07:10.707Z,57.18
2019-06-26T09:09:45.703Z,55.19
2019-06-26T09:12:20.714Z,55.78
2019-06-26T09:14:55.694Z,57.14
2019-06-26T09:17:30.705Z,55.67
2019-06-26T09:20:06.888Z,55.07
2019-06-26T09:22:42.316Z,54.32
2019-06-26T09:25:21.913Z,54.41
2019-06-26T09:27:54.097Z,54.07
2019-06-26T09:30:29.614Z,55.04
2019-06-26T09:33:04.725Z,55.38
2019-06-26T09:35:40.762Z,53.01
2019-06-26T09:38:15.917Z,52.59
2019-06-26T09:40:51.013Z,54.76
2019-06-26T09:43:26.218Z,53.96
2019-06-26T09:46:01.393Z,53.38
2019-06-26T09:48:51.511Z,53.46
2019-06-26T09:51:14.148Z,52.55
2019-06-26T09:53:49.103Z,53.14
2019-06-26T09:56:24.225Z,53.55
2019-06-26T09:58:59.380Z,53.33
2019-06-26T10:01:36.218Z,52.24
2019-06-26T10:04:11.390Z,53.59
2019-06-26T10:06:46.411Z,53.63
2019-06-26T10:09:21.806Z,52.53
2019-06-26T10:11:56.814Z,53.27
2019-06-26T10:14:46.559Z,53.87
2019-06-26T10:17:10.152Z,53.88
2019-06-26T10:19:45.233Z,53.95
2019-06-26T10:22:20.540Z,54.16
2019-06-26T10:24:55.650Z,54.52
2019-06-26T10:27:30.801Z,53.38
2019-06-26T10:30:07.438Z,54.09
2019-06-26T10:32:42.687Z,53.74
2019-06-26T10:35:18.801Z,54.03
2019-06-26T10:37:53.792Z,53.50
2019-06-26T10:40:28.866Z,53.71
2019-06-26T10:43:03.910Z,55.46
2019-06-26T10:45:38.899Z,56.05
2019-06-26T10:48:13.907Z,54.48
2019-06-26T10:50:57.930Z,56.45
2019-06-26T10:53:25.666Z,53.81
2019-06-26T10:56:00.747Z,53.64
2019-06-26T10:58:35.729Z,55.32
2019-06-26T11:01:11.063Z,54.23
2019-06-26T11:03:46.660Z,55.01
2019-06-26T11:06:24.202Z,54.67
2019-06-26T11:08:59.345Z,53.08
2019-06-26T11:11:34.576Z,53.44
2019-06-26T11:14:09.559Z,53.76
2019-06-26T11:16:44.639Z,54.08
2019-06-26T11:19:19.767Z,51.66
2019-06-26T11:21:54.923Z,51.81
2019-06-26T11:24:30.068Z,53.01
2019-06-26T11:27:05.051Z,52.88
2019-06-26T11:29:40.823Z,54.62
2019-06-26T11:32:15.952Z,56.21
2019-06-26T11:34:51.332Z,56.53
2019-06-26T11:37:27.420Z,57.03
2019-06-26T11:40:02.799Z,55.45
2019-06-26T11:42:37.981Z,54.98
2019-06-26T11:45:13.961Z,52.39
2019-06-26T11:47:49.200Z,52.36
2019-06-26T11:50:30.336Z,53.39
2019-06-26T11:53:05.412Z,52.75
2019-06-26T11:55:40.597Z,53.43
2019-06-26T11:58:15.611Z,53.34
2019-06-26T12:00:50.853Z,53.83
2019-06-26T12:03:26.333Z,53.59
2019-06-26T12:06:17.832Z,51.73
2019-06-26T12:08:38.778Z,51.70
2019-06-26T12:11:13.852Z,51.78
2019-06-26T12:13:49.209Z,49.82
2019-06-26T12:16:24.435Z,49.53
2019-06-26T12:18:59.460Z,51.63
2019-06-26T12:21:34.609Z,50.52
2019-06-26T12:24:10.619Z,49.29
2019-06-26T12:26:45.614Z,49.35
2019-06-26T12:29:20.762Z,49.90
2019-06-26T12:31:55.859Z,49.63
2019-06-26T12:34:31.096Z,50.70
2019-06-26T12:37:06.376Z,51.38
2019-06-26T12:39:41.661Z,49.56
2019-06-26T12:42:16.950Z,49.99
2019-06-26T12:44:54.206Z,47.96
2019-06-26T12:47:29.295Z,48.81
2019-06-26T12:50:06.050Z,47.19
2019-06-26T12:52:41.297Z,49.43
2019-06-26T12:55:16.295Z,46.60
2019-06-26T12:57:52.884Z,45.24
2019-06-26T13:00:28.075Z,43.89
2019-06-26T13:03:03.370Z,46.95
2019-06-26T13:05:38.386Z,44.18
2019-06-26T13:08:13.513Z,44.85
2019-06-26T13:10:50.365Z,42.81
2019-06-26T13:13:25.245Z,43.06
2019-06-26T13:16:00.286Z,44.83
2019-06-26T13:18:35.388Z,43.84
2019-06-26T13:21:10.579Z,45.02
2019-06-26T13:23:45.923Z,42.89
2019-06-26T13:26:21.107Z,42.34
2019-06-26T13:28:56.267Z,41.42
2019-06-26T13:31:31.419Z,42.17
2019-06-26T13:34:06.809Z,43.52
2019-06-26T13:36:41.915Z,43.34
2019-06-26T13:39:16.893Z,42.59
2019-06-26T13:41:51.909Z,44.21
2019-06-26T13:44:28.194Z,42.04
2019-06-26T13:47:03.219Z,41.80
2019-06-26T13:49:38.224Z,43.36
2019-06-26T13:52:13.217Z,42.41
2019-06-26T13:54:48.190Z,42.89
2019-06-26T13:57:23.195Z,43.68
2019-06-26T13:59:58.291Z,42.63
2019-06-26T14:02:33.732Z,42.91
2019-06-26T14:05:09.044Z,41.68
2019-06-26T14:07:44.013Z,40.75
2019-06-26T14:10:19.307Z,40.95
2019-06-26T14:12:54.342Z,38.78
2019-06-26T14:15:29.525Z,39.60
2019-06-26T14:18:04.549Z,40.70
2019-06-26T14:20:39.733Z,43.31
2019-06-26T14:23:14.879Z,45.11
2019-06-26T14:25:49.861Z,47.43
2019-06-26T14:28:24.956Z,47.36
2019-06-26T14:31:01.801Z,47.50
2019-06-26T14:33:39.058Z,48.93
2019-06-26T14:36:14.071Z,48.33
2019-06-26T14:38:49.184Z,46.66
2019-06-26T14:41:25.240Z,43.04
2019-06-26T14:44:00.294Z,43.64
2019-06-26T14:46:35.444Z,44.95
2019-06-26T14:49:15.139Z,46.86
2019-06-26T14:51:54.572Z,49.50
2019-06-26T14:54:29.862Z,50.94
2019-06-26T14:57:05.110Z,52.94
2019-06-26T14:59:40.132Z,53.89
2019-06-26T15:02:15.233Z,55.09
2019-06-26T15:04:51.031Z,56.17
2019-06-26T15:07:26.035Z,57.63
2019-06-26T15:10:01.039Z,56.93
2019-06-26T15:12:36.059Z,57.58
2019-06-26T15:18:15.550Z,58.37
2019-06-26T15:21:25.551Z,57.47
2019-06-26T15:24:35.919Z,57.44
2019-06-26T15:27:46.109Z,57.05
2019-06-26T15:30:56.160Z,57.24
2019-06-26T15:34:06.767Z,55.83
2019-06-26T15:37:16.438Z,57.40
2019-06-26T15:40:26.264Z,56.93
2019-06-26T15:43:36.413Z,57.87
2019-06-26T15:46:47.592Z,57.11
2019-06-26T15:49:57.831Z,56.41
2019-06-26T15:53:08.824Z,56.19
2019-06-26T15:56:19.567Z,56.15
2019-06-26T15:59:31.148Z,55.67
2019-06-26T16:02:42.021Z,55.89
2019-06-26T16:05:53.113Z,56.81
2019-06-26T16:09:03.919Z,55.90
2019-06-26T16:12:15.139Z,56.16
2019-06-26T16:15:26.363Z,56.27
2019-06-26T16:18:43.255Z,57.44
2019-06-26T16:21:54.091Z,57.40
2019-06-26T16:25:08.053Z,57.52
2019-06-26T16:28:18.303Z,58.36
2019-06-26T16:31:29.177Z,59.41
2019-06-26T16:34:40.018Z,59.78
2019-06-26T16:37:50.764Z,60.40
2019-06-26T16:41:01.973Z,58.42
2019-06-26T16:44:12.521Z,57.37
2019-06-26T16:47:22.471Z,57.43
2019-06-26T16:50:32.616Z,57.09
2019-06-26T16:53:42.670Z,55.89
2019-06-26T16:56:53.582Z,57.75
2019-06-26T17:00:09.795Z,58.22
2019-06-26T17:03:17.581Z,58.98
2019-06-26T17:06:28.017Z,58.17
2019-06-26T17:09:39.945Z,57.61
2019-06-26T17:12:49.884Z,57.14
2019-06-26T17:16:01.624Z,58.25
2019-06-26T17:19:13.862Z,58.75
2019-06-26T17:22:23.775Z,59.37
2019-06-26T17:25:34.595Z,60.35
2019-06-26T17:28:45.473Z,61.08
2019-06-26T17:31:55.605Z,61.86
2019-06-26T17:35:06.153Z,62.96
2019-06-26T17:38:16.359Z,62.25
2019-06-26T17:41:27.511Z,62.27
2019-06-26T17:44:38.206Z,63.64
2019-06-26T17:47:48.482Z,63.93
2019-06-26T17:50:59.318Z,63.12
2019-06-26T17:54:10.265Z,62.45
2019-06-26T17:57:20.237Z,63.14
2019-06-26T18:00:36.099Z,64.25
2019-06-26T18:03:47.251Z,63.16
2019-06-26T18:06:57.821Z,64.50
2019-06-26T18:10:08.963Z,63.70
2019-06-26T18:13:19.922Z,64.59
2019-06-26T18:16:29.747Z,64.67
2019-06-26T18:19:40.471Z,64.26
2019-06-26T18:23:05.745Z,65.03
2019-06-26T18:26:13.014Z,65.16
2019-06-26T18:29:18.583Z,64.37
2019-06-26T18:32:30.607Z,64.53
2019-06-26T18:35:40.791Z,65.46
2019-06-26T18:38:56.171Z,66.49
2019-06-26T18:42:06.987Z,65.34
2019-06-26T18:45:18.194Z,64.86
2019-06-26T18:48:40.235Z,66.11
2019-06-26T18:51:53.299Z,66.42
2019-06-26T18:55:03.734Z,67.21
2019-06-26T18:58:14.784Z,67.45
2019-06-26T19:01:25.697Z,67.33
2019-06-26T19:04:35.547Z,67.10
2019-06-26T19:07:46.488Z,67.31
2019-06-26T19:10:57.005Z,67.70
2019-06-26T19:14:08.030Z,67.36
2019-06-26T19:17:18.058Z,67.76
2019-06-26T19:20:29.066Z,67.83
2019-06-26T19:23:39.772Z,68.35
2019-06-26T19:26:50.975Z,67.95
2019-06-26T19:30:01.076Z,68.52
2019-06-26T19:33:10.813Z,68.28
2019-06-26T19:36:24.137Z,68.43
2019-06-26T19:39:33.040Z,68.64
2019-06-26T19:42:44.254Z,68.62
2019-06-26T19:45:55.092Z,69.29
2019-06-26T19:49:06.017Z,69.69
2019-06-26T19:52:16.811Z,69.75
2019-06-26T19:55:26.796Z,69.87
2019-06-26T19:58:37.774Z,69.50
2019-06-26T20:01:51.278Z,69.06
2019-06-26T20:05:00.706Z,69.25
2019-06-26T20:08:11.195Z,69.08
2019-06-26T20:11:22.389Z,70.27
2019-06-26T20:14:32.555Z,69.65
2019-06-26T20:17:42.370Z,69.58
2019-06-26T20:20:52.960Z,69.85
2019-06-26T20:24:03.120Z,69.71
2019-06-26T20:27:15.032Z,69.54
2019-06-26T20:30:30.558Z,70.09
2019-06-26T20:33:41.456Z,70.55
2019-06-26T20:36:52.472Z,70.10
2019-06-26T20:40:06.253Z,69.66
2019-06-26T20:43:16.741Z,70.20
2019-06-26T20:46:26.912Z,70.21
2019-06-26T20:49:52.586Z,70.32
2019-06-26T20:52:51.148Z,70.42
2019-06-26T20:56:05.260Z,70.92
2019-06-26T20:59:13.299Z,70.37
2019-06-26T21:02:23.574Z,70.14
2019-06-26T21:05:34.290Z,71.12
2019-06-26T21:08:45.281Z,72.28
2019-06-26T21:11:56.119Z,71.95
2019-06-26T21:15:07.697Z,70.94
2019-06-26T21:17:42.505Z,70.42
2019-06-26T21:20:18.090Z,70.17
2019-06-26T21:22:53.079Z,70.05
2019-06-26T21:25:28.190Z,69.79
2019-06-26T21:28:06.524Z,69.64
2019-06-26T21:30:41.725Z,70.30
2019-06-26T21:33:16.738Z,70.21
2019-06-26T21:35:51.768Z,71.25
2019-06-26T21:38:26.767Z,71.34
2019-06-26T21:41:03.162Z,71.99
2019-06-26T21:43:38.135Z,72.21
2019-06-26T21:46:13.146Z,72.05
2019-06-26T21:48:48.213Z,70.88
2019-06-26T21:51:23.235Z,71.73
2019-06-26T21:53:58.328Z,71.91
2019-06-26T21:56:51.055Z,70.89
2019-06-26T21:59:43.817Z,71.50
2019-06-26T22:02:36.587Z,71.11
2019-06-26T22:05:12.211Z,71.36
2019-06-26T22:07:54.351Z,71.37
2019-06-26T22:10:30.975Z,71.50
2019-06-26T22:13:06.286Z,71.88
2019-06-26T22:15:41.464Z,71.82
2019-06-26T22:18:16.495Z,72.79
2019-06-26T22:20:52.103Z,72.91
2019-06-26T22:23:27.162Z,72.93
2019-06-26T22:26:02.255Z,72.55
2019-06-26T22:28:38.043Z,72.28
2019-06-26T22:31:13.026Z,71.66
2019-06-26T22:33:47.993Z,71.11
2019-06-26T22:36:22.982Z,71.05
2019-06-26T22:38:59.151Z,70.57
2019-06-26T22:41:34.999Z,71.03
2019-06-26T22:44:09.970Z,71.84
2019-06-26T22:46:45.165Z,70.14
2019-06-26T22:49:20.239Z,69.16
2019-06-26T22:51:56.081Z,69.92
2019-06-26T22:54:31.039Z,70.29
2019-06-26T22:57:06.036Z,69.97
2019-06-26T22:59:41.129Z,70.40
2019-06-26T23:02:17.507Z,70.83
2019-06-26T23:04:52.502Z,71.37
2019-06-26T23:07:27.485Z,69.74
2019-06-26T23:10:02.477Z,69.88
2019-06-26T23:12:37.607Z,70.52
2019-06-26T23:15:13.209Z,70.85
2019-06-26T23:17:48.437Z,70.46
2019-06-26T23:20:23.406Z,69.35
2019-06-26T23:22:58.504Z,69.68
2019-06-26T23:25:35.186Z,69.45
2019-06-26T23:28:10.203Z,69.58
2019-06-26T23:30:45.179Z,69.09
2019-06-26T23:33:20.376Z,69.54
2019-06-26T23:35:55.348Z,69.42
2019-06-26T23:38:31.529Z,69.50
2019-06-26T23:41:06.519Z,69.24
2019-06-26T23:43:41.635Z,67.85
2019-06-26T23:46:16.603Z,68.41
2019-06-26T23:48:51.813Z,68.35
2019-06-26T23:51:26.773Z,68.56
2019-06-26T23:54:01.823Z,69.08
2019-06-26T23:56:40.632Z,68.97
2019-06-26T23:59:13.661Z,68.47
